sensor_id;sensor_type;location;lat;lon;timestamp;temperature;humidity
75436;DHT22;64014;53.432;14.534;2023-01-15T00:01:37;7.00;91.30
75436;DHT22;64014;53.432;14.534;2023-01-15T00:04:05;7.00;91.30
75436;DHT22;64014;53.432;14.534;2023-01-15T00:06:34;7.00;91.40
75436;DHT22;64014;53.432;14.534;2023-01-15T00:09:00;7.10;91.20
75436;DHT22;64014;53.432;14.534;2023-01-15T00:11:26;7.20;91.00
75436;DHT22;64014;53.432;14.534;2023-01-15T00:13:52;7.20;90.80
75436;DHT22;64014;53.432;14.534;2023-01-15T00:16:20;7.20;90.60
75436;DHT22;64014;53.432;14.534;2023-01-15T00:18:54;7.20;90.40
75436;DHT22;64014;53.432;14.534;2023-01-15T00:21:21;7.20;90.10
75436;DHT22;64014;53.432;14.534;2023-01-15T00:23:47;7.20;90.10
75436;DHT22;64014;53.432;14.534;2023-01-15T00:26:33;7.20;90.10
75436;DHT22;64014;53.432;14.534;2023-01-15T00:29:18;7.20;90.00
75436;DHT22;64014;53.432;14.534;2023-01-15T00:31:57;7.20;90.10
75436;DHT22;64014;53.432;14.534;2023-01-15T00:34:24;7.20;90.20
75436;DHT22;64014;53.432;14.534;2023-01-15T00:36:50;7.20;90.00
75436;DHT22;64014;53.432;14.534;2023-01-15T00:39:16;7.20;90.00
75436;DHT22;64014;53.432;14.534;2023-01-15T00:41:42;7.20;89.70
75436;DHT22;64014;53.432;14.534;2023-01-15T00:44:08;7.20;89.70
75436;DHT22;64014;53.432;14.534;2023-01-15T00:46:34;7.20;89.70
75436;DHT22;64014;53.432;14.534;2023-01-15T00:49:00;7.20;89.60
75436;DHT22;64014;53.432;14.534;2023-01-15T00:51:25;7.30;89.50
75436;DHT22;64014;53.432;14.534;2023-01-15T00:53:51;7.30;89.50
75436;DHT22;64014;53.432;14.534;2023-01-15T00:56:17;7.30;89.60
75436;DHT22;64014;53.432;14.534;2023-01-15T00:58:43;7.30;89.50
75436;DHT22;64014;53.432;14.534;2023-01-15T01:01:09;7.40;89.50
75436;DHT22;64014;53.432;14.534;2023-01-15T01:03:34;7.40;89.30
75436;DHT22;64014;53.432;14.534;2023-01-15T01:06:01;7.40;89.20
75436;DHT22;64014;53.432;14.534;2023-01-15T01:08:27;7.40;89.20
75436;DHT22;64014;53.432;14.534;2023-01-15T01:11:07;7.40;89.00
75436;DHT22;64014;53.432;14.534;2023-01-15T01:13:34;7.50;88.90
75436;DHT22;64014;53.432;14.534;2023-01-15T01:16:00;7.50;88.70
75436;DHT22;64014;53.432;14.534;2023-01-15T01:18:26;7.50;88.50
75436;DHT22;64014;53.432;14.534;2023-01-15T01:20:52;7.50;88.50
75436;DHT22;64014;53.432;14.534;2023-01-15T01:23:19;7.50;88.20
75436;DHT22;64014;53.432;14.534;2023-01-15T01:25:46;7.60;88.00
75436;DHT22;64014;53.432;14.534;2023-01-15T01:28:12;7.60;88.00
75436;DHT22;64014;53.432;14.534;2023-01-15T01:30:38;7.60;87.90
75436;DHT22;64014;53.432;14.534;2023-01-15T01:33:04;7.60;87.90
75436;DHT22;64014;53.432;14.534;2023-01-15T01:35:30;7.60;87.90
75436;DHT22;64014;53.432;14.534;2023-01-15T01:37:56;7.60;87.80
75436;DHT22;64014;53.432;14.534;2023-01-15T01:40:22;7.70;87.50
75436;DHT22;64014;53.432;14.534;2023-01-15T01:42:47;7.70;87.50
75436;DHT22;64014;53.432;14.534;2023-01-15T01:45:30;7.60;87.50
75436;DHT22;64014;53.432;14.534;2023-01-15T01:48:00;7.60;87.70
75436;DHT22;64014;53.432;14.534;2023-01-15T01:50:28;7.60;87.80
75436;DHT22;64014;53.432;14.534;2023-01-15T01:53:05;7.50;87.70
75436;DHT22;64014;53.432;14.534;2023-01-15T01:55:32;7.60;87.80
75436;DHT22;64014;53.432;14.534;2023-01-15T01:57:59;7.60;87.50
75436;DHT22;64014;53.432;14.534;2023-01-15T02:00:27;7.70;87.40
75436;DHT22;64014;53.432;14.534;2023-01-15T02:02:54;7.60;87.60
75436;DHT22;64014;53.432;14.534;2023-01-15T02:05:32;7.60;87.50
75436;DHT22;64014;53.432;14.534;2023-01-15T02:07:59;7.70;87.40
75436;DHT22;64014;53.432;14.534;2023-01-15T02:10:25;7.60;87.60
75436;DHT22;64014;53.432;14.534;2023-01-15T02:12:58;7.60;87.70
75436;DHT22;64014;53.432;14.534;2023-01-15T02:16:34;7.60;87.60
75436;DHT22;64014;53.432;14.534;2023-01-15T02:19:11;7.70;87.50
75436;DHT22;64014;53.432;14.534;2023-01-15T02:21:50;7.70;87.40
75436;DHT22;64014;53.432;14.534;2023-01-15T02:27:15;7.80;87.20
75436;DHT22;64014;53.432;14.534;2023-01-15T02:29:49;7.80;87.20
75436;DHT22;64014;53.432;14.534;2023-01-15T02:32:30;7.80;87.20
75436;DHT22;64014;53.432;14.534;2023-01-15T02:35:19;7.80;87.20
75436;DHT22;64014;53.432;14.534;2023-01-15T02:37:49;7.80;87.10
75436;DHT22;64014;53.432;14.534;2023-01-15T02:40:18;7.80;87.10
75436;DHT22;64014;53.432;14.534;2023-01-15T02:42:47;7.80;87.10
75436;DHT22;64014;53.432;14.534;2023-01-15T02:45:22;7.80;87.20
75436;DHT22;64014;53.432;14.534;2023-01-15T02:47:52;7.80;87.30
75436;DHT22;64014;53.432;14.534;2023-01-15T02:50:26;7.80;87.40
75436;DHT22;64014;53.432;14.534;2023-01-15T02:52:57;7.80;87.50
75436;DHT22;64014;53.432;14.534;2023-01-15T02:55:29;7.80;87.20
75436;DHT22;64014;53.432;14.534;2023-01-15T02:57:59;7.80;87.20
75436;DHT22;64014;53.432;14.534;2023-01-15T03:00:30;7.80;87.10
75436;DHT22;64014;53.432;14.534;2023-01-15T03:03:11;7.90;86.90
75436;DHT22;64014;53.432;14.534;2023-01-15T03:05:53;7.90;86.80
75436;DHT22;64014;53.432;14.534;2023-01-15T03:08:22;8.00;86.70
75436;DHT22;64014;53.432;14.534;2023-01-15T03:11:01;8.00;86.60
75436;DHT22;64014;53.432;14.534;2023-01-15T03:19:13;7.90;88.40
75436;DHT22;64014;53.432;14.534;2023-01-15T03:24:10;7.80;90.30
75436;DHT22;64014;53.432;14.534;2023-01-15T03:26:37;7.80;91.00
75436;DHT22;64014;53.432;14.534;2023-01-15T03:29:05;7.70;91.30
75436;DHT22;64014;53.432;14.534;2023-01-15T03:31:33;7.70;91.40
75436;DHT22;64014;53.432;14.534;2023-01-15T03:33:59;7.70;91.70
75436;DHT22;64014;53.432;14.534;2023-01-15T03:36:25;7.60;92.10
75436;DHT22;64014;53.432;14.534;2023-01-15T03:38:51;7.60;92.50
75436;DHT22;64014;53.432;14.534;2023-01-15T03:52:06;7.50;93.70
75436;DHT22;64014;53.432;14.534;2023-01-15T03:54:47;7.50;93.90
75436;DHT22;64014;53.432;14.534;2023-01-15T04:00:03;7.50;94.00
75436;DHT22;64014;53.432;14.534;2023-01-15T04:02:32;7.50;94.10
75436;DHT22;64014;53.432;14.534;2023-01-15T04:04:58;7.50;94.20
75436;DHT22;64014;53.432;14.534;2023-01-15T04:07:25;7.50;94.40
75436;DHT22;64014;53.432;14.534;2023-01-15T04:09:51;7.50;94.40
75436;DHT22;64014;53.432;14.534;2023-01-15T04:12:17;7.50;94.30
75436;DHT22;64014;53.432;14.534;2023-01-15T04:14:42;7.20;94.30
75436;DHT22;64014;53.432;14.534;2023-01-15T04:17:08;7.10;94.30
75436;DHT22;64014;53.432;14.534;2023-01-15T04:19:34;7.00;94.30
75436;DHT22;64014;53.432;14.534;2023-01-15T04:22:00;6.90;94.30
75436;DHT22;64014;53.432;14.534;2023-01-15T04:24:26;6.80;94.30
75436;DHT22;64014;53.432;14.534;2023-01-15T04:26:52;6.60;94.30
75436;DHT22;64014;53.432;14.534;2023-01-15T04:29:18;6.40;94.20
75436;DHT22;64014;53.432;14.534;2023-01-15T04:31:44;6.20;94.10
75436;DHT22;64014;53.432;14.534;2023-01-15T04:34:10;5.90;94.00
75436;DHT22;64014;53.432;14.534;2023-01-15T04:36:35;5.90;94.00
75436;DHT22;64014;53.432;14.534;2023-01-15T04:39:03;5.70;94.00
75436;DHT22;64014;53.432;14.534;2023-01-15T04:41:29;5.60;94.00
75436;DHT22;64014;53.432;14.534;2023-01-15T04:44:13;5.50;94.00
75436;DHT22;64014;53.432;14.534;2023-01-15T04:46:44;5.30;94.00
75436;DHT22;64014;53.432;14.534;2023-01-15T04:49:13;5.20;94.00
75436;DHT22;64014;53.432;14.534;2023-01-15T04:51:39;5.10;94.00
75436;DHT22;64014;53.432;14.534;2023-01-15T04:54:06;5.00;94.10
75436;DHT22;64014;53.432;14.534;2023-01-15T04:56:38;5.00;94.00
75436;DHT22;64014;53.432;14.534;2023-01-15T04:59:04;4.90;93.90
75436;DHT22;64014;53.432;14.534;2023-01-15T05:01:30;4.70;93.70
75436;DHT22;64014;53.432;14.534;2023-01-15T05:03:55;4.70;93.90
75436;DHT22;64014;53.432;14.534;2023-01-15T05:06:23;4.70;93.90
75436;DHT22;64014;53.432;14.534;2023-01-15T05:08:49;4.70;94.00
75436;DHT22;64014;53.432;14.534;2023-01-15T05:11:15;4.70;93.90
75436;DHT22;64014;53.432;14.534;2023-01-15T05:13:41;4.70;93.90
75436;DHT22;64014;53.432;14.534;2023-01-15T05:16:18;4.70;94.00
75436;DHT22;64014;53.432;14.534;2023-01-15T05:18:45;4.70;94.10
75436;DHT22;64014;53.432;14.534;2023-01-15T05:21:24;4.70;94.20
75436;DHT22;64014;53.432;14.534;2023-01-15T05:23:53;4.70;94.20
75436;DHT22;64014;53.432;14.534;2023-01-15T05:26:19;4.70;94.20
75436;DHT22;64014;53.432;14.534;2023-01-15T05:28:46;4.70;94.10
75436;DHT22;64014;53.432;14.534;2023-01-15T05:31:14;4.70;94.10
75436;DHT22;64014;53.432;14.534;2023-01-15T05:33:40;4.70;94.10
75436;DHT22;64014;53.432;14.534;2023-01-15T05:36:12;4.70;94.10
75436;DHT22;64014;53.432;14.534;2023-01-15T05:38:39;4.70;94.20
75436;DHT22;64014;53.432;14.534;2023-01-15T05:41:06;4.70;94.20
75436;DHT22;64014;53.432;14.534;2023-01-15T05:43:52;4.70;94.30
75436;DHT22;64014;53.432;14.534;2023-01-15T05:46:18;4.70;94.20
75436;DHT22;64014;53.432;14.534;2023-01-15T05:48:44;4.70;94.20
75436;DHT22;64014;53.432;14.534;2023-01-15T05:51:10;4.70;94.20
75436;DHT22;64014;53.432;14.534;2023-01-15T05:53:36;4.70;94.20
75436;DHT22;64014;53.432;14.534;2023-01-15T05:56:02;4.70;94.20
75436;DHT22;64014;53.432;14.534;2023-01-15T05:58:28;4.70;94.00
75436;DHT22;64014;53.432;14.534;2023-01-15T06:00:54;4.70;94.00
75436;DHT22;64014;53.432;14.534;2023-01-15T06:03:22;4.60;94.10
75436;DHT22;64014;53.432;14.534;2023-01-15T06:05:54;4.70;94.00
75436;DHT22;64014;53.432;14.534;2023-01-15T06:08:21;4.70;94.10
75436;DHT22;64014;53.432;14.534;2023-01-15T06:10:48;4.70;94.10
75436;DHT22;64014;53.432;14.534;2023-01-15T06:13:14;4.60;94.00
75436;DHT22;64014;53.432;14.534;2023-01-15T06:15:41;4.60;93.70
75436;DHT22;64014;53.432;14.534;2023-01-15T06:18:06;4.60;93.70
75436;DHT22;64014;53.432;14.534;2023-01-15T06:20:41;4.70;93.60
75436;DHT22;64014;53.432;14.534;2023-01-15T06:23:08;4.60;93.50
75436;DHT22;64014;53.432;14.534;2023-01-15T06:25:35;4.60;93.10
75436;DHT22;64014;53.432;14.534;2023-01-15T06:28:06;4.70;93.30
75436;DHT22;64014;53.432;14.534;2023-01-15T06:30:32;4.70;93.20
75436;DHT22;64014;53.432;14.534;2023-01-15T06:32:58;4.60;93.20
75436;DHT22;64014;53.432;14.534;2023-01-15T06:35:24;4.60;93.30
75436;DHT22;64014;53.432;14.534;2023-01-15T06:37:50;4.60;93.30
75436;DHT22;64014;53.432;14.534;2023-01-15T06:40:16;4.50;93.30
75436;DHT22;64014;53.432;14.534;2023-01-15T06:42:42;4.50;92.80
75436;DHT22;64014;53.432;14.534;2023-01-15T06:45:30;4.50;92.10
75436;DHT22;64014;53.432;14.534;2023-01-15T06:48:16;4.40;92.60
75436;DHT22;64014;53.432;14.534;2023-01-15T06:50:43;4.40;92.90
75436;DHT22;64014;53.432;14.534;2023-01-15T06:53:09;4.30;92.80
75436;DHT22;64014;53.432;14.534;2023-01-15T06:55:35;4.30;93.00
75436;DHT22;64014;53.432;14.534;2023-01-15T06:58:02;4.30;92.40
75436;DHT22;64014;53.432;14.534;2023-01-15T07:00:28;4.30;92.40
75436;DHT22;64014;53.432;14.534;2023-01-15T07:02:54;4.30;92.20
75436;DHT22;64014;53.432;14.534;2023-01-15T07:05:19;4.30;91.90
75436;DHT22;64014;53.432;14.534;2023-01-15T07:07:45;4.20;92.30
75436;DHT22;64014;53.432;14.534;2023-01-15T07:10:11;4.20;92.50
75436;DHT22;64014;53.432;14.534;2023-01-15T07:12:37;4.20;92.50
75436;DHT22;64014;53.432;14.534;2023-01-15T07:15:03;4.20;91.80
75436;DHT22;64014;53.432;14.534;2023-01-15T07:17:29;4.20;90.90
75436;DHT22;64014;53.432;14.534;2023-01-15T07:19:54;4.20;90.80
75436;DHT22;64014;53.432;14.534;2023-01-15T07:22:20;4.20;91.30
75436;DHT22;64014;53.432;14.534;2023-01-15T07:24:46;4.20;90.80
75436;DHT22;64014;53.432;14.534;2023-01-15T07:27:12;4.10;91.40
75436;DHT22;64014;53.432;14.534;2023-01-15T07:29:37;4.20;91.10
75436;DHT22;64014;53.432;14.534;2023-01-15T07:32:03;4.20;91.50
75436;DHT22;64014;53.432;14.534;2023-01-15T07:34:29;4.20;91.50
75436;DHT22;64014;53.432;14.534;2023-01-15T07:36:55;4.20;91.70
75436;DHT22;64014;53.432;14.534;2023-01-15T07:39:21;4.20;91.90
75436;DHT22;64014;53.432;14.534;2023-01-15T07:41:46;4.20;91.90
75436;DHT22;64014;53.432;14.534;2023-01-15T07:44:30;4.20;92.10
75436;DHT22;64014;53.432;14.534;2023-01-15T07:47:18;4.20;92.30
75436;DHT22;64014;53.432;14.534;2023-01-15T07:50:04;4.20;92.60
75436;DHT22;64014;53.432;14.534;2023-01-15T07:52:30;4.20;92.80
75436;DHT22;64014;53.432;14.534;2023-01-15T07:54:55;4.20;92.50
75436;DHT22;64014;53.432;14.534;2023-01-15T07:57:21;4.30;92.40
75436;DHT22;64014;53.432;14.534;2023-01-15T07:59:48;4.30;92.40
75436;DHT22;64014;53.432;14.534;2023-01-15T08:02:15;4.30;92.40
75436;DHT22;64014;53.432;14.534;2023-01-15T08:04:40;4.30;92.90
75436;DHT22;64014;53.432;14.534;2023-01-15T08:07:07;4.30;92.60
75436;DHT22;64014;53.432;14.534;2023-01-15T08:09:33;4.30;92.80
75436;DHT22;64014;53.432;14.534;2023-01-15T08:12:00;4.30;92.80
75436;DHT22;64014;53.432;14.534;2023-01-15T08:14:45;4.30;92.60
75436;DHT22;64014;53.432;14.534;2023-01-15T08:17:32;4.30;92.50
75436;DHT22;64014;53.432;14.534;2023-01-15T08:19:58;4.30;91.70
75436;DHT22;64014;53.432;14.534;2023-01-15T08:22:24;4.40;91.80
75436;DHT22;64014;53.432;14.534;2023-01-15T08:24:49;4.30;92.10
75436;DHT22;64014;53.432;14.534;2023-01-15T08:27:16;4.30;92.10
75436;DHT22;64014;53.432;14.534;2023-01-15T08:29:42;4.30;92.00
75436;DHT22;64014;53.432;14.534;2023-01-15T08:32:07;4.30;92.40
75436;DHT22;64014;53.432;14.534;2023-01-15T08:34:33;4.30;91.80
75436;DHT22;64014;53.432;14.534;2023-01-15T08:36:59;4.30;92.10
75436;DHT22;64014;53.432;14.534;2023-01-15T08:39:28;4.30;90.80
75436;DHT22;64014;53.432;14.534;2023-01-15T08:41:55;4.40;91.40
75436;DHT22;64014;53.432;14.534;2023-01-15T08:44:21;4.30;91.20
75436;DHT22;64014;53.432;14.534;2023-01-15T08:46:49;4.30;91.40
75436;DHT22;64014;53.432;14.534;2023-01-15T08:49:15;4.40;90.60
75436;DHT22;64014;53.432;14.534;2023-01-15T08:51:43;4.40;90.60
75436;DHT22;64014;53.432;14.534;2023-01-15T08:54:09;4.40;91.00
75436;DHT22;64014;53.432;14.534;2023-01-15T08:56:35;4.40;91.00
75436;DHT22;64014;53.432;14.534;2023-01-15T08:59:04;4.40;91.70
75436;DHT22;64014;53.432;14.534;2023-01-15T09:01:31;4.40;91.00
75436;DHT22;64014;53.432;14.534;2023-01-15T09:03:57;4.40;91.30
75436;DHT22;64014;53.432;14.534;2023-01-15T09:06:23;4.50;91.10
75436;DHT22;64014;53.432;14.534;2023-01-15T09:08:49;4.50;89.90
75436;DHT22;64014;53.432;14.534;2023-01-15T09:11:15;4.50;90.10
75436;DHT22;64014;53.432;14.534;2023-01-15T09:13:41;4.50;89.60
75436;DHT22;64014;53.432;14.534;2023-01-15T09:16:07;4.50;89.80
75436;DHT22;64014;53.432;14.534;2023-01-15T09:18:36;4.50;89.40
75436;DHT22;64014;53.432;14.534;2023-01-15T09:21:06;4.50;89.60
75436;DHT22;64014;53.432;14.534;2023-01-15T09:23:32;4.50;89.20
75436;DHT22;64014;53.432;14.534;2023-01-15T09:26:00;4.50;88.40
75436;DHT22;64014;53.432;14.534;2023-01-15T09:28:28;4.60;88.60
75436;DHT22;64014;53.432;14.534;2023-01-15T09:30:54;4.70;88.90
75436;DHT22;64014;53.432;14.534;2023-01-15T09:33:20;4.70;88.90
75436;DHT22;64014;53.432;14.534;2023-01-15T09:35:46;4.70;89.10
75436;DHT22;64014;53.432;14.534;2023-01-15T09:38:14;4.70;88.10
75436;DHT22;64014;53.432;14.534;2023-01-15T09:40:52;4.70;89.10
75436;DHT22;64014;53.432;14.534;2023-01-15T09:46:14;4.70;88.90
75436;DHT22;64014;53.432;14.534;2023-01-15T09:48:54;4.70;89.40
75436;DHT22;64014;53.432;14.534;2023-01-15T09:51:49;4.80;88.70
75436;DHT22;64014;53.432;14.534;2023-01-15T09:54:21;4.90;88.20
75436;DHT22;64014;53.432;14.534;2023-01-15T09:56:48;4.90;89.00
75436;DHT22;64014;53.432;14.534;2023-01-15T09:59:27;5.00;88.70
75436;DHT22;64014;53.432;14.534;2023-01-15T10:01:54;5.00;88.00
75436;DHT22;64014;53.432;14.534;2023-01-15T10:04:36;5.00;87.50
75436;DHT22;64014;53.432;14.534;2023-01-15T10:10:03;5.10;87.20
75436;DHT22;64014;53.432;14.534;2023-01-15T10:12:30;5.10;85.90
75436;DHT22;64014;53.432;14.534;2023-01-15T10:15:12;5.10;87.00
75436;DHT22;64014;53.432;14.534;2023-01-15T10:17:45;5.10;86.40
75436;DHT22;64014;53.432;14.534;2023-01-15T10:20:48;5.10;86.30
75436;DHT22;64014;53.432;14.534;2023-01-15T10:25:49;5.30;84.70
75436;DHT22;64014;53.432;14.534;2023-01-15T10:29:41;5.30;86.90
75436;DHT22;64014;53.432;14.534;2023-01-15T10:31:53;5.30;86.40
75436;DHT22;64014;53.432;14.534;2023-01-15T10:45:30;5.30;84.10
75436;DHT22;64014;53.432;14.534;2023-01-15T10:50:31;5.50;84.80
75436;DHT22;64014;53.432;14.534;2023-01-15T10:53:37;5.50;85.30
75436;DHT22;64014;53.432;14.534;2023-01-15T10:58:51;5.50;84.60
75436;DHT22;64014;53.432;14.534;2023-01-15T11:01:19;5.50;84.20
75436;DHT22;64014;53.432;14.534;2023-01-15T11:03:48;5.50;83.30
75436;DHT22;64014;53.432;14.534;2023-01-15T11:06:17;5.50;83.10
75436;DHT22;64014;53.432;14.534;2023-01-15T11:08:54;5.60;83.50
75436;DHT22;64014;53.432;14.534;2023-01-15T11:14:38;5.60;83.40
75436;DHT22;64014;53.432;14.534;2023-01-15T11:17:28;5.60;81.90
75436;DHT22;64014;53.432;14.534;2023-01-15T11:20:31;5.60;82.60
75436;DHT22;64014;53.432;14.534;2023-01-15T11:23:07;5.70;82.70
75436;DHT22;64014;53.432;14.534;2023-01-15T11:25:33;5.70;82.40
75436;DHT22;64014;53.432;14.534;2023-01-15T11:28:02;5.80;81.00
75436;DHT22;64014;53.432;14.534;2023-01-15T11:30:38;5.80;78.90
75436;DHT22;64014;53.432;14.534;2023-01-15T11:33:15;5.90;78.80
75436;DHT22;64014;53.432;14.534;2023-01-15T11:35:53;5.90;78.70
75436;DHT22;64014;53.432;14.534;2023-01-15T11:38:25;5.90;78.80
75436;DHT22;64014;53.432;14.534;2023-01-15T11:40:56;6.00;78.10
75436;DHT22;64014;53.432;14.534;2023-01-15T11:43:27;6.00;77.60
75436;DHT22;64014;53.432;14.534;2023-01-15T11:46:30;6.00;78.30
75436;DHT22;64014;53.432;14.534;2023-01-15T11:49:17;6.00;78.00
75436;DHT22;64014;53.432;14.534;2023-01-15T11:52:05;6.00;77.60
75436;DHT22;64014;53.432;14.534;2023-01-15T11:54:36;6.10;77.50
75436;DHT22;64014;53.432;14.534;2023-01-15T11:57:03;6.10;76.90
75436;DHT22;64014;53.432;14.534;2023-01-15T11:59:31;6.20;76.10
75436;DHT22;64014;53.432;14.534;2023-01-15T12:02:03;6.20;76.00
75436;DHT22;64014;53.432;14.534;2023-01-15T12:04:35;6.20;75.70
75436;DHT22;64014;53.432;14.534;2023-01-15T12:07:04;6.30;75.80
75436;DHT22;64014;53.432;14.534;2023-01-15T12:15:41;6.60;73.60
75436;DHT22;64014;53.432;14.534;2023-01-15T12:18:28;7.00;72.30
75436;DHT22;64014;53.432;14.534;2023-01-15T12:27:04;7.40;72.10
75436;DHT22;64014;53.432;14.534;2023-01-15T12:29:55;7.00;70.90
75436;DHT22;64014;53.432;14.534;2023-01-15T12:32:32;6.60;72.10
75436;DHT22;64014;53.432;14.534;2023-01-15T12:35:17;6.60;73.00
75436;DHT22;64014;53.432;14.534;2023-01-15T12:38:25;6.70;72.40
75436;DHT22;64014;53.432;14.534;2023-01-15T12:40:51;6.50;72.40
75436;DHT22;64014;53.432;14.534;2023-01-15T12:43:24;6.50;72.90
75436;DHT22;64014;53.432;14.534;2023-01-15T12:46:14;6.50;72.10
75436;DHT22;64014;53.432;14.534;2023-01-15T12:48:50;6.50;72.10
75436;DHT22;64014;53.432;14.534;2023-01-15T12:51:28;6.60;71.50
75436;DHT22;64014;53.432;14.534;2023-01-15T12:54:00;6.60;70.80
75436;DHT22;64014;53.432;14.534;2023-01-15T12:59:43;6.60;70.20
75436;DHT22;64014;53.432;14.534;2023-01-15T13:02:25;7.20;69.10
75436;DHT22;64014;53.432;14.534;2023-01-15T13:05:17;7.40;67.90
75436;DHT22;64014;53.432;14.534;2023-01-15T13:10:39;7.50;66.90
75436;DHT22;64014;53.432;14.534;2023-01-15T13:13:25;7.50;66.80
75436;DHT22;64014;53.432;14.534;2023-01-15T13:16:08;7.40;66.50
75436;DHT22;64014;53.432;14.534;2023-01-15T13:21:40;7.00;67.40
75436;DHT22;64014;53.432;14.534;2023-01-15T13:32:55;6.60;68.00
75436;DHT22;64014;53.432;14.534;2023-01-15T13:35:30;6.50;67.80
75436;DHT22;64014;53.432;14.534;2023-01-15T13:37:59;6.60;68.70
75436;DHT22;64014;53.432;14.534;2023-01-15T13:40:32;6.70;67.70
75436;DHT22;64014;53.432;14.534;2023-01-15T13:43:00;6.80;67.10
75436;DHT22;64014;53.432;14.534;2023-01-15T13:45:36;6.90;67.20
75436;DHT22;64014;53.432;14.534;2023-01-15T13:48:24;6.90;66.20
75436;DHT22;64014;53.432;14.534;2023-01-15T13:50:55;6.90;66.60
75436;DHT22;64014;53.432;14.534;2023-01-15T13:53:36;7.10;65.50
75436;DHT22;64014;53.432;14.534;2023-01-15T13:56:08;7.00;65.70
75436;DHT22;64014;53.432;14.534;2023-01-15T13:58:38;6.80;66.90
75436;DHT22;64014;53.432;14.534;2023-01-15T14:06:19;6.70;66.10
75436;DHT22;64014;53.432;14.534;2023-01-15T14:08:45;6.60;65.90
75436;DHT22;64014;53.432;14.534;2023-01-15T14:20:19;6.40;65.90
75436;DHT22;64014;53.432;14.534;2023-01-15T14:34:17;6.40;65.20
75436;DHT22;64014;53.432;14.534;2023-01-15T14:36:55;6.40;64.70
75436;DHT22;64014;53.432;14.534;2023-01-15T14:39:40;6.30;65.50
75436;DHT22;64014;53.432;14.534;2023-01-15T14:42:30;6.30;65.30
75436;DHT22;64014;53.432;14.534;2023-01-15T14:45:37;6.30;65.40
75436;DHT22;64014;53.432;14.534;2023-01-15T14:51:07;6.20;66.60
75436;DHT22;64014;53.432;14.534;2023-01-15T14:53:45;6.20;66.10
75436;DHT22;64014;53.432;14.534;2023-01-15T14:56:17;6.20;65.70
75436;DHT22;64014;53.432;14.534;2023-01-15T14:58:54;6.20;65.70
75436;DHT22;64014;53.432;14.534;2023-01-15T15:01:36;6.20;65.80
75436;DHT22;64014;53.432;14.534;2023-01-15T15:04:38;6.10;66.10
75436;DHT22;64014;53.432;14.534;2023-01-15T15:07:12;6.00;66.30
75436;DHT22;64014;53.432;14.534;2023-01-15T15:21:16;5.70;67.30
75436;DHT22;64014;53.432;14.534;2023-01-15T15:31:22;5.70;66.70
75436;DHT22;64014;53.432;14.534;2023-01-15T15:33:51;5.80;66.50
75436;DHT22;64014;53.432;14.534;2023-01-15T15:36:18;5.80;66.10
75436;DHT22;64014;53.432;14.534;2023-01-15T15:38:55;5.80;66.20
75436;DHT22;64014;53.432;14.534;2023-01-15T15:41:26;5.80;65.90
75436;DHT22;64014;53.432;14.534;2023-01-15T15:44:21;5.70;66.10
75436;DHT22;64014;53.432;14.534;2023-01-15T15:47:18;5.70;66.30
75436;DHT22;64014;53.432;14.534;2023-01-15T15:50:02;5.60;66.80
75436;DHT22;64014;53.432;14.534;2023-01-15T15:52:28;5.50;67.20
75436;DHT22;64014;53.432;14.534;2023-01-15T15:54:59;5.50;67.40
75436;DHT22;64014;53.432;14.534;2023-01-15T15:57:27;5.50;67.80
75436;DHT22;64014;53.432;14.534;2023-01-15T15:59:54;5.40;68.20
75436;DHT22;64014;53.432;14.534;2023-01-15T16:02:27;5.30;68.50
75436;DHT22;64014;53.432;14.534;2023-01-15T16:04:54;5.30;68.40
75436;DHT22;64014;53.432;14.534;2023-01-15T16:07:26;5.30;68.80
75436;DHT22;64014;53.432;14.534;2023-01-15T16:10:19;5.30;69.10
75436;DHT22;64014;53.432;14.534;2023-01-15T16:12:47;5.20;69.10
75436;DHT22;64014;53.432;14.534;2023-01-15T16:15:25;5.10;69.40
75436;DHT22;64014;53.432;14.534;2023-01-15T16:17:55;5.10;69.80
75436;DHT22;64014;53.432;14.534;2023-01-15T16:20:21;5.10;69.80
75436;DHT22;64014;53.432;14.534;2023-01-15T16:22:57;5.10;69.80
75436;DHT22;64014;53.432;14.534;2023-01-15T16:25:26;5.00;69.80
75436;DHT22;64014;53.432;14.534;2023-01-15T16:27:53;5.10;69.40
75436;DHT22;64014;53.432;14.534;2023-01-15T16:30:19;5.10;69.00
75436;DHT22;64014;53.432;14.534;2023-01-15T16:32:46;5.10;69.10
75436;DHT22;64014;53.432;14.534;2023-01-15T16:35:21;5.10;69.30
75436;DHT22;64014;53.432;14.534;2023-01-15T16:37:54;5.10;69.20
75436;DHT22;64014;53.432;14.534;2023-01-15T16:40:24;5.10;69.20
75436;DHT22;64014;53.432;14.534;2023-01-15T16:43:07;5.10;69.00
75436;DHT22;64014;53.432;14.534;2023-01-15T16:45:35;5.00;68.70
75436;DHT22;64014;53.432;14.534;2023-01-15T16:50:50;5.10;68.60
75436;DHT22;64014;53.432;14.534;2023-01-15T16:55:54;5.00;68.90
75436;DHT22;64014;53.432;14.534;2023-01-15T16:58:32;5.00;69.10
75436;DHT22;64014;53.432;14.534;2023-01-15T17:00:58;5.00;69.50
75436;DHT22;64014;53.432;14.534;2023-01-15T17:03:26;4.90;69.70
75436;DHT22;64014;53.432;14.534;2023-01-15T17:06:10;4.90;70.10
75436;DHT22;64014;53.432;14.534;2023-01-15T17:08:37;4.90;70.00
75436;DHT22;64014;53.432;14.534;2023-01-15T17:11:08;4.90;70.20
75436;DHT22;64014;53.432;14.534;2023-01-15T17:13:42;4.80;70.40
75436;DHT22;64014;53.432;14.534;2023-01-15T17:18:39;4.70;70.70
75436;DHT22;64014;53.432;14.534;2023-01-15T17:21:06;4.70;70.50
75436;DHT22;64014;53.432;14.534;2023-01-15T17:23:38;4.70;70.50
75436;DHT22;64014;53.432;14.534;2023-01-15T17:26:05;4.70;70.60
75436;DHT22;64014;53.432;14.534;2023-01-15T17:28:31;4.70;70.60
75436;DHT22;64014;53.432;14.534;2023-01-15T17:31:00;4.70;70.60
75436;DHT22;64014;53.432;14.534;2023-01-15T17:33:26;4.70;70.20
75436;DHT22;64014;53.432;14.534;2023-01-15T17:35:52;4.70;69.90
75436;DHT22;64014;53.432;14.534;2023-01-15T17:38:18;4.70;69.50
75436;DHT22;64014;53.432;14.534;2023-01-15T17:40:44;4.70;69.50
75436;DHT22;64014;53.432;14.534;2023-01-15T17:43:12;4.70;69.20
75436;DHT22;64014;53.432;14.534;2023-01-15T17:45:39;4.70;69.40
75436;DHT22;64014;53.432;14.534;2023-01-15T17:48:06;4.70;68.80
75436;DHT22;64014;53.432;14.534;2023-01-15T17:50:36;4.70;69.00
75436;DHT22;64014;53.432;14.534;2023-01-15T17:53:03;4.70;68.50
75436;DHT22;64014;53.432;14.534;2023-01-15T17:55:29;4.70;68.60
75436;DHT22;64014;53.432;14.534;2023-01-15T17:58:14;4.60;68.60
75436;DHT22;64014;53.432;14.534;2023-01-15T18:01:01;4.50;68.50
75436;DHT22;64014;53.432;14.534;2023-01-15T18:03:49;4.50;68.60
75436;DHT22;64014;53.432;14.534;2023-01-15T18:06:34;4.50;68.60
75436;DHT22;64014;53.432;14.534;2023-01-15T18:09:02;4.40;68.70
75436;DHT22;64014;53.432;14.534;2023-01-15T18:11:29;4.50;67.90
75436;DHT22;64014;53.432;14.534;2023-01-15T18:13:55;4.50;68.00
75436;DHT22;64014;53.432;14.534;2023-01-15T18:16:22;4.50;67.80